createdAt,value
2018-07-15T00:00:27.653Z,95.75
2018-07-15T00:01:27.649Z,95.56
2018-07-15T00:02:27.643Z,95.65
2018-07-15T00:03:27.637Z,96.51
2018-07-15T00:04:27.645Z,95.75
2018-07-15T00:05:27.629Z,95.75
2018-07-15T00:06:27.624Z,95.75
2018-07-15T00:07:27.618Z,95.75
2018-07-15T00:08:27.667Z,95.94
2018-07-15T00:09:27.614Z,96.42
2018-07-15T00:10:27.625Z,95.36
2018-07-15T00:11:27.596Z,96.61
2018-07-15T00:12:27.594Z,96.51
2018-07-15T00:13:27.588Z,96.32
2018-07-15T00:14:27.582Z,96.22
2018-07-15T00:15:27.577Z,96.22
2018-07-15T00:16:27.574Z,96.18
2018-07-15T00:17:27.570Z,96.47
2018-07-15T00:18:27.563Z,96.66
2018-07-15T00:19:27.305Z,96.56
2018-07-15T00:20:27.555Z,96.27
2018-07-15T00:21:27.549Z,96.37
2018-07-15T00:22:27.541Z,96.27
2018-07-15T00:23:27.288Z,96.27
2018-07-15T00:24:27.537Z,96.37
2018-07-15T00:25:27.526Z,96.56
2018-07-15T00:26:27.519Z,96.27
2018-07-15T00:27:27.518Z,96.56
2018-07-15T00:28:27.511Z,96.18
2018-07-15T00:29:27.503Z,96.47
2018-07-15T00:30:27.501Z,97.04
2018-07-15T00:31:27.497Z,97.13
2018-07-15T00:32:27.508Z,96.66
2018-07-15T00:33:27.494Z,96.75
2018-07-15T00:34:27.505Z,96.66
2018-07-15T00:35:27.475Z,96.75
2018-07-15T00:36:27.482Z,96.94
2018-07-15T00:37:27.464Z,96.84
2018-07-15T00:38:27.459Z,96.94
2018-07-15T00:39:27.453Z,96.94
2018-07-15T00:40:27.456Z,96.94
2018-07-15T00:41:27.443Z,96.75
2018-07-15T00:42:27.438Z,96.89
2018-07-15T00:43:27.438Z,97.42
2018-07-15T00:44:27.204Z,97.37
2018-07-15T00:45:27.422Z,97.13
2018-07-15T00:46:27.428Z,97.28
2018-07-15T00:47:27.411Z,97.33
2018-07-15T00:48:27.406Z,97.18
2018-07-15T00:49:27.406Z,96.99
2018-07-15T00:50:27.647Z,97.08
2018-07-15T00:51:27.394Z,97.47
2018-07-15T00:52:27.385Z,97.37
2018-07-15T00:53:27.137Z,96.8
2018-07-15T00:54:27.378Z,97.18
2018-07-15T00:55:27.453Z,97.18
2018-07-15T00:56:27.366Z,96.99
2018-07-15T00:57:27.363Z,97.37
2018-07-15T00:58:27.358Z,97.28
2018-07-15T00:59:27.348Z,97.18
2018-07-15T01:00:27.342Z,97.37
2018-07-15T01:01:27.340Z,97.56
2018-07-15T01:02:27.332Z,97.47
2018-07-15T01:03:27.074Z,96.8
2018-07-15T01:04:27.321Z,97.47
2018-07-15T01:05:27.317Z,97.56
2018-07-15T01:06:27.058Z,97.28
2018-07-15T01:07:27.311Z,97.37
2018-07-15T01:08:27.300Z,97.37
2018-07-15T01:09:27.042Z,97.95
2018-07-15T01:10:27.294Z,97.56
2018-07-15T01:11:27.282Z,97.75
2018-07-15T01:12:27.277Z,97.56
2018-07-15T01:13:27.271Z,97.75
2018-07-15T01:14:27.015Z,97.66
2018-07-15T01:15:27.262Z,97.56
2018-07-15T01:16:27.256Z,97.75
2018-07-15T01:17:27.263Z,97.66
2018-07-15T01:18:27.245Z,97.47
2018-07-15T01:19:27.241Z,97.47
2018-07-15T01:20:27.236Z,97.56
2018-07-15T01:21:27.483Z,97.75
2018-07-15T01:22:27.224Z,97.56
2018-07-15T01:23:26.973Z,97.47
2018-07-15T01:24:26.963Z,97.37
2018-07-15T01:25:27.208Z,97.47
2018-07-15T01:26:26.949Z,97.56
2018-07-15T01:27:27.195Z,96.99
2018-07-15T01:28:27.192Z,97.37
2018-07-15T01:29:27.248Z,96.89
2018-07-15T01:30:27.178Z,97.56
2018-07-15T01:31:27.173Z,97.18
2018-07-15T01:32:27.168Z,96.89
2018-07-15T01:33:27.167Z,96.89
2018-07-15T01:34:27.157Z,96.99
2018-07-15T01:35:27.153Z,96.89
2018-07-15T01:36:27.148Z,97.08
2018-07-15T01:37:27.147Z,96.89
2018-07-15T01:38:26.883Z,96.8
2018-07-15T01:39:26.876Z,96.89
2018-07-15T01:40:26.876Z,96.89
2018-07-15T01:41:27.116Z,96.89
2018-07-15T01:42:27.111Z,96.7
2018-07-15T01:43:27.109Z,96.99
2018-07-15T01:44:27.121Z,96.61
2018-07-15T01:45:27.098Z,96.99
2018-07-15T01:46:27.090Z,96.8
2018-07-15T01:47:27.084Z,96.89
2018-07-15T01:48:27.078Z,96.8
2018-07-15T01:49:26.820Z,96.99
2018-07-15T01:50:27.066Z,96.89
2018-07-15T01:51:26.811Z,97.18
2018-07-15T01:52:27.056Z,97.56
2018-07-15T01:53:27.051Z,97.66
2018-07-15T01:54:26.793Z,97.28
2018-07-15T01:55:27.041Z,97.08
2018-07-15T01:56:27.037Z,96.89
2018-07-15T01:57:27.030Z,97.75
2018-07-15T01:58:27.023Z,97.33
2018-07-15T01:59:27.022Z,97.8
2018-07-15T02:00:27.013Z,97.71
2018-07-15T02:01:27.006Z,97.71
2018-07-15T02:02:27.000Z,97.61
2018-07-15T02:03:26.994Z,97.9
2018-07-15T02:04:26.736Z,97.8
2018-07-15T02:05:26.986Z,97.9
2018-07-15T02:06:26.983Z,98.09
2018-07-15T02:07:26.974Z,97.8
2018-07-15T02:08:26.966Z,97.99
2018-07-15T02:09:26.969Z,98.28
2018-07-15T02:10:26.957Z,97.99
2018-07-15T02:11:26.697Z,98.18
2018-07-15T02:12:26.696Z,97.9
2018-07-15T02:13:26.940Z,98.28
2018-07-15T02:14:26.685Z,98.47
2018-07-15T02:15:26.932Z,98.28
2018-07-15T02:16:26.921Z,98.47
2018-07-15T02:17:26.667Z,98.09
2018-07-15T02:18:26.917Z,98.09
2018-07-15T02:19:26.905Z,98.09
2018-07-15T02:20:26.900Z,98.18
2018-07-15T02:21:26.893Z,98.28
2018-07-15T02:22:26.636Z,98.18
2018-07-15T02:23:26.925Z,98.09
2018-07-15T02:24:26.625Z,98.28
2018-07-15T02:25:26.872Z,98.28
2018-07-15T02:26:26.865Z,98.28
2018-07-15T02:27:26.858Z,97.9
2018-07-15T02:28:26.852Z,98.28
2018-07-15T02:29:26.866Z,97.9
2018-07-15T02:30:26.843Z,97.9
2018-07-15T02:31:26.584Z,97.99
2018-07-15T02:32:26.834Z,97.99
2018-07-15T02:33:26.824Z,98.09
2018-07-15T02:34:26.824Z,98.09
2018-07-15T02:35:26.815Z,98.09
2018-07-15T02:36:26.807Z,98.85
2018-07-15T02:37:26.551Z,98.66
2018-07-15T02:38:26.797Z,98.85
2018-07-15T02:39:26.550Z,98.85
2018-07-15T02:40:26.783Z,98.18
2018-07-15T02:41:26.780Z,98.66
2018-07-15T02:42:26.521Z,98.18
2018-07-15T02:43:26.766Z,98.18
2018-07-15T02:44:26.509Z,98.18
2018-07-15T02:45:26.752Z,98.09
2018-07-15T02:46:26.753Z,98.09
2018-07-15T02:47:26.743Z,98.09
2018-07-15T02:48:26.484Z,98.28
2018-07-15T02:49:26.491Z,98.28
2018-07-15T02:50:26.478Z,98.75
2018-07-15T02:51:26.718Z,98.28
2018-07-15T02:52:26.464Z,98.28
2018-07-15T02:53:26.706Z,98.85
2018-07-15T02:54:26.452Z,98.75
2018-07-15T02:55:26.699Z,98.66
2018-07-15T02:56:26.687Z,98.66
2018-07-15T02:57:26.682Z,98.47
2018-07-15T02:58:26.680Z,98.75
2018-07-15T02:59:26.420Z,98.28
2018-07-15T03:00:26.665Z,97.99
2018-07-15T03:01:26.663Z,98.38
2018-07-15T03:02:26.651Z,98.66
2018-07-15T03:03:26.648Z,98.66
2018-07-15T03:04:26.389Z,98.38
2018-07-15T03:05:26.390Z,98.66
2018-07-15T03:06:26.630Z,98.38
2018-07-15T03:07:26.622Z,98.38
2018-07-15T03:08:26.618Z,98.57
2018-07-15T03:09:26.614Z,98.95
2018-07-15T03:10:26.632Z,98.85
2018-07-15T03:11:26.599Z,98.95
2018-07-15T03:12:26.606Z,98.28
2018-07-15T03:13:26.338Z,98.18
2018-07-15T03:14:26.582Z,98.66
2018-07-15T03:15:26.579Z,98.66
2018-07-15T03:16:26.572Z,98.57
2018-07-15T03:17:26.788Z,98.28
2018-07-15T03:18:26.307Z,97.9
2018-07-15T03:19:26.588Z,98.28
2018-07-15T03:20:26.297Z,98.47
2018-07-15T03:21:26.289Z,98.85
2018-07-15T03:22:26.283Z,98.66
2018-07-15T03:23:26.530Z,98.66
2018-07-15T03:24:26.524Z,97.9
2018-07-15T03:25:26.264Z,98.28
2018-07-15T03:26:26.761Z,98.47
2018-07-15T03:27:26.508Z,98.28
2018-07-15T03:28:26.246Z,98.66
2018-07-15T03:29:26.496Z,98.09
2018-07-15T03:30:26.496Z,98.09
2018-07-15T03:31:26.484Z,98.28
2018-07-15T03:32:26.226Z,97.99
2018-07-15T03:33:26.469Z,98.18
2018-07-15T03:34:26.471Z,97.9
2018-07-15T03:35:26.205Z,98.18
2018-07-15T03:36:26.456Z,97.99
2018-07-15T03:37:26.452Z,98.14
2018-07-15T03:38:26.442Z,98.04
2018-07-15T03:39:26.436Z,97.85
2018-07-15T03:40:26.177Z,97.75
2018-07-15T03:41:26.426Z,97.75
2018-07-15T03:42:26.167Z,97.75
2018-07-15T03:43:26.419Z,97.37
2018-07-15T03:44:26.156Z,97.37
2018-07-15T03:45:26.406Z,97.42
2018-07-15T03:46:26.409Z,97.04
2018-07-15T03:47:26.139Z,96.84
2018-07-15T03:48:26.134Z,97.04
2018-07-15T03:49:26.129Z,96.66
2018-07-15T03:50:26.123Z,96.56
2018-07-15T03:51:26.118Z,96.51
2018-07-15T03:52:26.368Z,96.61
2018-07-15T03:53:26.365Z,95.75
2018-07-15T03:54:26.101Z,95.56
2018-07-15T03:55:26.105Z,95.56
2018-07-15T03:56:26.092Z,95.31
2018-07-15T03:57:26.615Z,94.93
2018-07-15T03:58:26.083Z,95.03
2018-07-15T03:59:26.350Z,94.55
2018-07-15T04:00:26.325Z,94.64
2018-07-15T04:01:26.068Z,94.93
2018-07-15T04:02:26.315Z,94.45
2018-07-15T04:03:26.059Z,94.45
2018-07-15T04:04:26.053Z,94.17
2018-07-15T04:05:26.051Z,94.4
2018-07-15T04:06:26.045Z,94.02
2018-07-15T04:07:26.296Z,93.73
2018-07-15T04:08:26.092Z,93.73
2018-07-15T04:09:26.032Z,93.83
2018-07-15T04:10:26.026Z,93.44
2018-07-15T04:11:26.022Z,93.83
2018-07-15T04:12:26.273Z,92.91
2018-07-15T04:13:26.266Z,93.11
2018-07-15T04:14:26.265Z,92.63
2018-07-15T04:15:26.256Z,93.01
2018-07-15T04:16:26.254Z,93.01
2018-07-15T04:17:26.245Z,93.3
2018-07-15T04:18:26.248Z,92.34
2018-07-15T04:19:26.242Z,92.54
2018-07-15T04:20:26.234Z,92.39
2018-07-15T04:21:25.982Z,92.54
2018-07-15T04:22:26.228Z,92.58
2018-07-15T04:23:26.227Z,91.91
2018-07-15T04:24:26.224Z,91.52
2018-07-15T04:25:25.962Z,91.72
2018-07-15T04:26:26.211Z,91.81
2018-07-15T04:27:26.219Z,92.1
2018-07-15T04:28:26.639Z,91.14
2018-07-15T04:29:26.203Z,91.38
2018-07-15T04:30:25.943Z,91.19
2018-07-15T04:31:25.944Z,91.28
2018-07-15T04:32:25.937Z,90.99
2018-07-15T04:33:25.933Z,90.56
2018-07-15T04:34:26.186Z,89.69
2018-07-15T04:35:25.928Z,89.26
2018-07-15T04:36:26.180Z,88.53
2018-07-15T04:37:25.921Z,87.86
2018-07-15T04:38:26.175Z,87.62
2018-07-15T04:39:26.168Z,87.42
2018-07-15T04:40:26.177Z,87.71
2018-07-15T04:41:26.173Z,87.13
2018-07-15T04:42:26.157Z,86.94
2018-07-15T04:43:26.200Z,86.89
2018-07-15T04:44:26.158Z,86.79
2018-07-15T04:45:25.898Z,86.12
2018-07-15T04:46:26.148Z,85.83
2018-07-15T04:47:26.149Z,85.93
2018-07-15T04:48:25.891Z,86.22
2018-07-15T04:49:26.144Z,85.83
2018-07-15T04:50:26.158Z,85.64
2018-07-15T04:51:26.144Z,85.06
2018-07-15T04:52:26.148Z,85.1
2018-07-15T04:53:25.880Z,84.62
2018-07-15T04:54:26.158Z,84.81
2018-07-15T04:55:26.131Z,83.7
2018-07-15T04:56:25.877Z,83.64
2018-07-15T04:57:26.132Z,82.68
2018-07-15T04:58:26.123Z,82.59
2018-07-15T04:59:26.120Z,82.14
2018-07-15T05:00:26.121Z,82.14
2018-07-15T05:01:26.122Z,81.32
2018-07-15T05:02:26.122Z,81.12
2018-07-15T05:03:26.120Z,80.3
2018-07-15T05:04:26.118Z,79.33
2018-07-15T05:05:26.125Z,78.89
2018-07-15T05:06:25.867Z,78.34
2018-07-15T05:07:26.122Z,77.13
2018-07-15T05:09:25.870Z,75.52
2018-07-15T05:10:26.120Z,74.4
2018-07-15T05:11:26.249Z,73.66
2018-07-15T05:12:26.129Z,71.66
2018-07-15T05:13:26.132Z,70.83
2018-07-15T05:14:26.140Z,69.31
2018-07-15T05:15:26.131Z,67.4
2018-07-15T05:16:26.136Z,66.66
2018-07-15T05:17:26.140Z,65.05
2018-07-15T05:18:26.257Z,64.11
2018-07-15T05:19:26.148Z,62.19
2018-07-15T05:20:26.160Z,60.77
2018-07-15T05:21:26.159Z,58.85
2018-07-15T05:22:26.168Z,57.59
2018-07-15T05:23:25.918Z,57.03
2018-07-15T05:24:26.176Z,55.3
2018-07-15T05:25:26.183Z,54.16
2018-07-15T05:26:26.187Z,53.5
2018-07-15T05:27:26.193Z,52.53
2018-07-15T05:28:26.199Z,51.87
2018-07-15T05:29:26.207Z,51.02
2018-07-15T05:30:26.216Z,50.53
2018-07-15T05:31:26.223Z,49.9
2018-07-15T05:32:26.230Z,48.44
2018-07-15T05:33:26.250Z,47.67
2018-07-15T05:34:25.993Z,47.02
2018-07-15T05:35:26.255Z,46.23
2018-07-15T05:36:26.011Z,45.47
2018-07-15T05:37:26.272Z,44.62
2018-07-15T05:38:26.028Z,43.27
2018-07-15T05:39:26.293Z,42.7
2018-07-15T05:40:26.297Z,42.11
2018-07-15T05:41:26.055Z,41.64
2018-07-15T05:42:26.068Z,40.88
2018-07-15T05:43:26.337Z,40.51
2018-07-15T05:44:26.533Z,39.74
2018-07-15T05:45:26.355Z,37.78
2018-07-15T05:46:26.358Z,37.9
2018-07-15T05:47:26.367Z,36.42
2018-07-15T05:48:26.127Z,36.74
2018-07-15T05:49:26.392Z,36.63
2018-07-15T05:50:26.407Z,36.34
2018-07-15T05:51:26.412Z,35.77
2018-07-15T05:52:26.171Z,36.26
2018-07-15T05:53:26.432Z,36.26
2018-07-15T05:54:26.193Z,35.67
2018-07-15T05:55:26.462Z,35.49
2018-07-15T05:56:26.470Z,34.7
2018-07-15T05:57:26.481Z,34.01
2018-07-15T05:58:26.494Z,32.45
2018-07-15T05:59:26.502Z,32.34
2018-07-15T06:00:26.513Z,31.38
2018-07-15T06:01:26.525Z,31.85
2018-07-15T06:02:26.541Z,31.35
2018-07-15T06:03:26.619Z,32.81
2018-07-15T06:04:26.570Z,32.2
2018-07-15T06:05:26.572Z,32.68
2018-07-15T06:06:26.583Z,32.87
2018-07-15T06:07:26.599Z,33.34
2018-07-15T06:08:26.357Z,33.84
2018-07-15T06:09:26.630Z,33.26
2018-07-15T06:10:26.632Z,33.36
2018-07-15T06:11:26.657Z,33.36
2018-07-15T06:12:26.404Z,32.98
2018-07-15T06:13:26.668Z,33.38
2018-07-15T06:14:26.429Z,32.79
2018-07-15T06:15:26.696Z,32.51
2018-07-15T06:16:26.706Z,32.82
2018-07-15T06:17:26.717Z,33.22
2018-07-15T06:18:26.478Z,31.94
2018-07-15T06:19:26.492Z,32.15
2018-07-15T06:20:26.761Z,32.23
2018-07-15T06:21:26.769Z,31.95
2018-07-15T06:22:26.529Z,31.66
2018-07-15T06:23:26.842Z,31.07
2018-07-15T06:24:26.553Z,31.36
2018-07-15T06:25:26.818Z,30.4
2018-07-15T06:26:26.831Z,31.38
2018-07-15T06:27:26.592Z,31.28
2018-07-15T06:28:26.857Z,32.07
2018-07-15T06:29:26.879Z,31.97
2018-07-15T06:30:26.884Z,31.38
2018-07-15T06:31:26.902Z,29.72
2018-07-15T06:32:29.398Z,29.71
2018-07-15T06:33:26.923Z,30.49
2018-07-15T06:34:26.941Z,30.59
2018-07-15T06:35:26.698Z,30.4
2018-07-15T06:36:26.963Z,30.49
2018-07-15T06:37:26.977Z,30.3
2018-07-15T06:38:26.989Z,30.49
2018-07-15T06:39:26.752Z,30.79
2018-07-15T06:40:27.019Z,30.59
2018-07-15T06:41:27.032Z,30.3
2018-07-15T06:42:27.047Z,29.82
2018-07-15T06:43:27.058Z,29.34
2018-07-15T06:44:27.074Z,29.24
2018-07-15T06:45:27.094Z,30.3
2018-07-15T06:46:28.374Z,31.09
2018-07-15T06:47:27.112Z,31.16
2018-07-15T06:48:26.875Z,30.28
2018-07-15T06:49:26.896Z,30.77
2018-07-15T06:50:27.761Z,30.19
2018-07-15T06:51:27.170Z,30.19
2018-07-15T06:52:27.180Z,30.49
2018-07-15T06:53:27.201Z,30.49
2018-07-15T06:54:27.209Z,30.4
2018-07-15T06:55:27.227Z,30.3
2018-07-15T06:56:27.237Z,30.31
2018-07-15T06:57:27.250Z,30.1
2018-07-15T06:58:27.263Z,29.31
2018-07-15T06:59:27.027Z,29.71
2018-07-15T07:00:27.295Z,29.51
2018-07-15T07:01:27.369Z,29.41
2018-07-15T07:02:27.323Z,29.71
2018-07-15T07:03:27.336Z,29.61
2018-07-15T07:04:27.363Z,29.21
2018-07-15T07:05:27.362Z,28.82
2018-07-15T07:06:27.375Z,28.63
2018-07-15T07:07:27.697Z,28.51
2018-07-15T07:08:27.401Z,28.5
2018-07-15T07:09:27.167Z,29.09
2018-07-15T07:10:27.428Z,29.57
2018-07-15T07:11:27.446Z,29.55
2018-07-15T07:12:27.201Z,28.78
2018-07-15T07:13:27.469Z,29.25
2018-07-15T07:14:27.503Z,29.93
2018-07-15T07:15:27.498Z,30.01
2018-07-15T07:16:27.505Z,30.58
2018-07-15T07:17:27.525Z,30.57
2018-07-15T07:18:27.531Z,30.47
2018-07-15T07:19:27.293Z,31.55
2018-07-15T07:20:27.674Z,32.1
2018-07-15T07:21:27.569Z,32.68
2018-07-15T07:22:27.330Z,33.23
2018-07-15T07:23:27.604Z,33.31
2018-07-15T07:24:27.607Z,33.41
2018-07-15T07:25:27.625Z,33.23
2018-07-15T07:26:27.636Z,33.43
2018-07-15T07:27:27.649Z,34.19
2018-07-15T07:28:27.664Z,33.62
2018-07-15T07:29:27.672Z,33.23
2018-07-15T07:30:27.430Z,33.7
2018-07-15T07:31:27.443Z,34.48
2018-07-15T07:32:27.707Z,33.9
2018-07-15T07:33:27.720Z,34.38
2018-07-15T07:34:27.763Z,34.96
2018-07-15T07:35:27.537Z,35.41
2018-07-15T07:36:27.761Z,36.19
2018-07-15T07:37:27.516Z,36.37
2018-07-15T07:38:27.782Z,36.27
2018-07-15T07:39:27.798Z,37.04
2018-07-15T07:40:27.809Z,37.62
2018-07-15T07:41:27.963Z,37.13
2018-07-15T07:42:27.828Z,37.71
2018-07-15T07:43:27.843Z,37.5
2018-07-15T07:44:27.876Z,37.6
2018-07-15T07:45:27.874Z,37.5
2018-07-15T07:46:27.888Z,37.81
2018-07-15T07:47:27.888Z,37.54
2018-07-15T07:48:27.908Z,36.98
2018-07-15T07:49:27.915Z,36.7
2018-07-15T07:50:27.924Z,34.86
2018-07-15T07:51:27.936Z,34.78
2018-07-15T07:52:27.705Z,34.86
2018-07-15T07:53:28.075Z,34.86
2018-07-15T07:54:27.978Z,34.94
2018-07-15T07:55:27.997Z,36.41
2018-07-15T07:56:27.998Z,36.11
2018-07-15T07:57:28.008Z,36.51
2018-07-15T07:58:28.017Z,36.04
2018-07-15T07:59:27.787Z,35.66
2018-07-15T08:00:28.043Z,34.97
2018-07-15T08:01:28.062Z,34.41
2018-07-15T08:02:28.070Z,33.94
2018-07-15T08:03:27.830Z,34.13
2018-07-15T08:04:27.839Z,33.45
2018-07-15T08:05:28.106Z,34.11
2018-07-15T08:06:28.365Z,33.53
2018-07-15T08:07:28.129Z,34.31
2018-07-15T08:08:28.138Z,34.7
2018-07-15T08:09:28.178Z,33.92
2018-07-15T08:10:28.168Z,33.15
2018-07-15T08:11:27.921Z,33.54
2018-07-15T08:12:28.188Z,33.94
2018-07-15T08:13:28.197Z,33.74
2018-07-15T08:14:28.215Z,32.95
2018-07-15T08:15:28.232Z,33.64
2018-07-15T08:16:28.232Z,34.6
2018-07-15T08:17:27.993Z,34.86
2018-07-15T08:18:28.257Z,36.11
2018-07-15T08:19:28.019Z,36.68
2018-07-15T08:20:28.281Z,36.98
2018-07-15T08:21:28.289Z,37.17
2018-07-15T08:22:28.356Z,37.17
2018-07-15T08:23:28.310Z,37.55
2018-07-15T08:24:28.321Z,37.19
2018-07-15T08:25:28.330Z,37.29
2018-07-15T08:26:28.343Z,37.5
2018-07-15T08:27:28.353Z,37.3
2018-07-15T08:28:28.281Z,36.44
2018-07-15T08:29:28.126Z,34.8
2018-07-15T08:30:28.387Z,34.11
2018-07-15T08:31:28.398Z,35.27
2018-07-15T08:32:28.422Z,35.17
2018-07-15T08:33:28.431Z,34.68
2018-07-15T08:34:28.439Z,34.6
2018-07-15T08:35:28.453Z,34.5
2018-07-15T08:36:28.457Z,33.92
2018-07-15T08:37:28.468Z,34.11
2018-07-15T08:38:28.491Z,33.62
2018-07-15T08:39:28.492Z,33.43
2018-07-15T08:40:28.511Z,34
2018-07-15T08:41:28.523Z,33.51
2018-07-15T08:42:28.540Z,34.67
2018-07-15T08:43:28.542Z,35.63
2018-07-15T08:44:28.556Z,36.29
2018-07-15T08:45:28.567Z,36.86
2018-07-15T08:46:28.327Z,37.05
2018-07-15T08:47:28.596Z,36.47
2018-07-15T08:48:28.603Z,36.19
2018-07-15T08:49:28.364Z,36.68
2018-07-15T08:50:28.630Z,36.49
2018-07-15T08:51:28.640Z,36.19
2018-07-15T08:52:28.663Z,36.7
2018-07-15T08:53:28.665Z,36.72
2018-07-15T08:54:28.427Z,34.77
2018-07-15T08:55:28.691Z,33.89
2018-07-15T08:56:28.707Z,34.84
2018-07-15T08:57:28.722Z,35.53
2018-07-15T08:58:28.734Z,36
2018-07-15T08:59:28.747Z,36.29
2018-07-15T09:00:28.502Z,35.98
2018-07-15T09:01:28.771Z,35.59
2018-07-15T09:02:28.536Z,36.25
2018-07-15T09:03:28.986Z,36.92
2018-07-15T09:04:28.798Z,37.12
2018-07-15T09:05:28.812Z,37.68
2018-07-15T09:06:28.824Z,37.97
2018-07-15T09:07:28.832Z,37.66
2018-07-15T09:08:29.090Z,38.91
2018-07-15T09:09:28.599Z,39.18
2018-07-15T09:10:28.859Z,39.94
2018-07-15T09:11:28.869Z,40.91
2018-07-15T09:12:28.900Z,41.08
2018-07-15T09:13:28.634Z,41.77
2018-07-15T09:14:28.642Z,42.52
2018-07-15T09:15:28.901Z,42.91
2018-07-15T09:16:28.907Z,42.89
2018-07-15T09:17:28.914Z,43.93
2018-07-15T09:18:28.932Z,44.03
2018-07-15T09:19:28.675Z,44.68
2018-07-15T09:20:28.933Z,44.01
2018-07-15T09:21:28.943Z,43.91
2018-07-15T09:22:28.945Z,43.89
2018-07-15T09:23:28.953Z,44.76
2018-07-15T09:24:28.969Z,45.61
2018-07-15T09:25:28.959Z,46.29
2018-07-15T09:26:28.961Z,46.84
2018-07-15T09:27:28.966Z,47.24
2018-07-15T09:28:28.978Z,47.69
2018-07-15T09:29:28.732Z,47.89
2018-07-15T09:30:28.977Z,48.47
2018-07-15T09:31:28.982Z,48.27
2018-07-15T09:32:28.983Z,49.34
2018-07-15T09:33:28.994Z,49.32
2018-07-15T09:34:28.736Z,48.16
2018-07-15T09:35:29.113Z,48.64
2018-07-15T09:36:28.994Z,49.32
2018-07-15T09:37:28.996Z,49.41
2018-07-15T09:38:28.998Z,49.41
2018-07-15T09:39:29.249Z,49.32
2018-07-15T09:40:28.752Z,49.44
2018-07-15T09:41:29.001Z,48.54
2018-07-15T09:42:29.002Z,48.16
2018-07-15T09:43:29.010Z,48.64
2018-07-15T09:44:29.207Z,49.6
2018-07-15T09:45:29.007Z,49.7
2018-07-15T09:46:29.011Z,49.7
2018-07-15T09:47:29.018Z,49.99
2018-07-15T09:48:29.009Z,49.9
2018-07-15T09:49:29.012Z,50.09
2018-07-15T09:50:29.022Z,50.67
2018-07-15T09:51:29.015Z,50.4
2018-07-15T09:52:28.763Z,50.18
2018-07-15T09:53:29.018Z,49.32
2018-07-15T09:54:28.767Z,49.51
2018-07-15T09:55:29.031Z,48.44
2018-07-15T09:56:29.020Z,49.32
2018-07-15T09:57:29.023Z,49.41
2018-07-15T09:58:29.132Z,49.32
2018-07-15T09:59:29.045Z,49.68
2018-07-15T10:00:29.026Z,50.07
2018-07-15T10:01:28.778Z,50.91
2018-07-15T10:02:28.774Z,51.1
2018-07-15T10:03:29.030Z,51.1
2018-07-15T10:04:29.033Z,50.62
2018-07-15T10:05:29.038Z,50.81
2018-07-15T10:06:29.029Z,51.29
2018-07-15T10:07:29.126Z,51.13
2018-07-15T10:08:29.053Z,51.61
2018-07-15T10:09:29.233Z,51.61
2018-07-15T10:10:29.127Z,51.23
2018-07-15T10:11:29.034Z,51.51
2018-07-15T10:12:29.037Z,51.13
2018-07-15T10:13:29.033Z,51.32
2018-07-15T10:14:28.782Z,50.65
2018-07-15T10:15:29.037Z,51.23
2018-07-15T10:16:29.036Z,51.68
2018-07-15T10:17:28.783Z,51.61
2018-07-15T10:18:29.036Z,51.71
2018-07-15T10:19:28.785Z,51.59
2018-07-15T10:20:28.786Z,50.91
2018-07-15T10:21:28.785Z,50.81
2018-07-15T10:22:29.038Z,51.1
2018-07-15T10:23:29.038Z,51.29
2018-07-15T10:24:29.039Z,51.39
2018-07-15T10:25:29.037Z,51.68
2018-07-15T10:26:29.102Z,52.09
2018-07-15T10:27:29.042Z,51.97
2018-07-15T10:28:29.044Z,51.51
2018-07-15T10:29:29.045Z,50.16
2018-07-15T10:30:29.040Z,50.35
2018-07-15T10:31:28.792Z,50.16
2018-07-15T10:32:29.041Z,50.26
2018-07-15T10:33:29.047Z,49.77
2018-07-15T10:34:28.790Z,50.07
2018-07-15T10:35:29.041Z,49.97
2018-07-15T10:36:29.055Z,49.97
2018-07-15T10:37:29.042Z,49.68
2018-07-15T10:38:29.044Z,50.07
2018-07-15T10:39:29.052Z,49.8
2018-07-15T10:40:29.044Z,49.8
2018-07-15T10:41:29.044Z,50.18
2018-07-15T10:42:29.048Z,51.15
2018-07-15T10:43:29.045Z,51.25
2018-07-15T10:44:29.150Z,50.67
2018-07-15T10:45:29.046Z,50.12
2018-07-15T10:46:29.049Z,50.79
2018-07-15T10:47:28.794Z,49.73
2018-07-15T10:48:29.049Z,49.54
2018-07-15T10:49:29.051Z,48.01
2018-07-15T10:50:29.052Z,48.59
2018-07-15T10:51:29.069Z,48.69
2018-07-15T10:52:29.049Z,48.3
2018-07-15T10:53:29.050Z,48.11
2018-07-15T10:54:28.804Z,47.81
2018-07-15T10:55:29.054Z,46.94
2018-07-15T10:56:29.059Z,46.66
2018-07-15T10:57:29.058Z,47.52
2018-07-15T10:58:29.056Z,47.91
2018-07-15T10:59:29.057Z,47.91
2018-07-15T11:00:29.060Z,48.01
2018-07-15T11:01:29.059Z,48.01
2018-07-15T11:02:29.063Z,48.39
2018-07-15T11:03:28.809Z,48.3
2018-07-15T11:04:29.070Z,48.69
2018-07-15T11:05:29.065Z,48.81
2018-07-15T11:06:28.878Z,48.32
2018-07-15T11:07:29.066Z,47.94
2018-07-15T11:08:28.814Z,47.94
2018-07-15T11:09:29.072Z,47.55
2018-07-15T11:10:29.072Z,47.26
2018-07-15T11:11:29.070Z,47.94
2018-07-15T11:12:28.827Z,48.03
2018-07-15T11:13:29.382Z,47.84
2018-07-15T11:14:28.821Z,46.67
2018-07-15T11:15:29.087Z,46.67
2018-07-15T11:16:29.229Z,46.19
2018-07-15T11:17:29.074Z,46.97
2018-07-15T11:18:29.092Z,46
2018-07-15T11:19:29.086Z,45.81
2018-07-15T11:20:29.085Z,44.64
2018-07-15T11:21:29.081Z,44.54
2018-07-15T11:22:28.843Z,44.93
2018-07-15T11:23:29.082Z,45.03
2018-07-15T11:24:29.088Z,44.72
2018-07-15T11:25:29.084Z,45.1
2018-07-15T11:26:29.085Z,45.98
2018-07-15T11:27:29.087Z,46.46
2018-07-15T11:28:29.102Z,46.26
2018-07-15T11:29:28.851Z,46.94
2018-07-15T11:30:29.105Z,46.46
2018-07-15T11:31:29.351Z,47.14
2018-07-15T11:32:29.091Z,47.72
2018-07-15T11:33:29.103Z,47.62
2018-07-15T11:34:29.101Z,46.84
2018-07-15T11:35:29.108Z,46.97
2018-07-15T11:36:29.097Z,46.87
2018-07-15T11:37:29.103Z,46.09
2018-07-15T11:38:29.101Z,46.58
2018-07-15T11:39:29.100Z,47.26
2018-07-15T11:40:28.907Z,48.03
2018-07-15T11:41:29.108Z,48.03
2018-07-15T11:42:29.105Z,46.48
2018-07-15T11:43:29.115Z,45.22
2018-07-15T11:44:28.858Z,46.19
2018-07-15T11:45:29.117Z,46.46
2018-07-15T11:46:29.110Z,46.84
2018-07-15T11:47:29.135Z,47.21
2018-07-15T11:48:29.112Z,47.79
2018-07-15T11:49:29.112Z,46.63
2018-07-15T11:50:29.112Z,47.21
2018-07-15T11:51:29.115Z,47.5
2018-07-15T11:52:29.124Z,47.99
2018-07-15T11:53:29.115Z,48.37
2018-07-15T11:54:29.197Z,47.89
2018-07-15T11:55:29.123Z,47.62
2018-07-15T11:56:29.118Z,48.01
2018-07-15T11:57:28.867Z,48.01
2018-07-15T11:58:29.119Z,47.62
2018-07-15T11:59:29.126Z,47.62
2018-07-15T12:00:29.136Z,47.72
2018-07-15T12:01:29.160Z,47.52
2018-07-15T12:02:29.129Z,48.11
2018-07-15T12:03:29.124Z,48.2
2018-07-15T12:04:29.129Z,47.91
2018-07-15T12:05:29.129Z,48.01
2018-07-15T12:06:28.882Z,48.01
2018-07-15T12:07:29.130Z,47.72
2018-07-15T12:08:28.877Z,48.11
2018-07-15T12:09:28.878Z,48.01
2018-07-15T12:10:29.128Z,48.37
2018-07-15T12:11:29.133Z,48.18
2018-07-15T12:12:29.134Z,48.47
2018-07-15T12:13:29.133Z,48.57
2018-07-15T12:14:29.134Z,49.34
2018-07-15T12:15:29.140Z,49.34
2018-07-15T12:16:29.149Z,49.37
2018-07-15T12:17:29.190Z,49.37
2018-07-15T12:18:29.136Z,49.27
2018-07-15T12:19:29.138Z,49.85
2018-07-15T12:20:29.163Z,49.44
2018-07-15T12:21:28.886Z,49.46
2018-07-15T12:22:29.142Z,49.46
2018-07-15T12:23:29.139Z,49.73
2018-07-15T12:24:29.143Z,50.04
2018-07-15T12:25:29.142Z,49.17
2018-07-15T12:26:29.146Z,49.46
2018-07-15T12:27:29.143Z,48.59
2018-07-15T12:28:29.151Z,48.69
2018-07-15T12:29:29.160Z,49.15
2018-07-15T12:30:29.143Z,49.27
2018-07-15T12:31:29.162Z,49.44
2018-07-15T12:32:28.895Z,49.54
2018-07-15T12:33:28.895Z,49.92
2018-07-15T12:34:28.896Z,49.34
2018-07-15T12:35:29.150Z,49.34
2018-07-15T12:36:29.153Z,49.34
2018-07-15T12:37:29.151Z,49.46
2018-07-15T12:38:29.160Z,49.73
2018-07-15T12:39:29.153Z,50.5
2018-07-15T12:40:29.149Z,50.24
2018-07-15T12:41:29.152Z,50.43
2018-07-15T12:42:28.902Z,49.17
2018-07-15T12:43:29.331Z,48.88
2018-07-15T12:44:28.902Z,49.75
2018-07-15T12:45:28.905Z,49.95
2018-07-15T12:46:29.406Z,49.56
2018-07-15T12:47:29.161Z,49.46
2018-07-15T12:48:29.170Z,49.27
2018-07-15T12:49:29.164Z,48.2
2018-07-15T12:50:29.162Z,48.3
2018-07-15T12:51:29.170Z,48.39
2018-07-15T12:52:29.161Z,48.69
2018-07-15T12:53:29.165Z,48.3
2018-07-15T12:54:29.161Z,48.49
2018-07-15T12:55:29.162Z,48.69
2018-07-15T12:56:29.167Z,48.79